| time (UTC) | temp F | wind direction | speed MPH | gust MPH | rain 1hr in | rain 24hr in | rain mn in | humidity % | barometer mb |
| 20260507163139 | 49 | 196 | 6.0 | 11.0 | 0.00 | 0.26 | 0.07 | 87 | 1004.1 |
| 20260507161637 | 50 | 243 | 4.0 | 10.0 | 0.00 | 0.26 | 0.07 | 85 | 1004.1 |
| 20260507160139 | 49 | 220 | 6.0 | 11.0 | 0.00 | 0.26 | 0.07 | 85 | 1004.3 |
| 20260507154638 | 51 | 191 | 6.0 | 10.0 | 0.00 | 0.26 | 0.07 | 83 | 1004.6 |
| 20260507153141 | 51 | 201 | 5.0 | 8.0 | 0.00 | 0.26 | 0.07 | 81 | 1004.8 |
| 20260507151640 | 52 | 280 | 7.0 | 9.0 | 0.00 | 0.26 | 0.07 | 80 | 1005.0 |
| 20260507150140 | 52 | 285 | 4.0 | 9.0 | 0.00 | 0.26 | 0.07 | 83 | 1004.7 |
| 20260507144639 | 51 | 309 | 6.0 | 11.0 | 0.00 | 0.26 | 0.07 | 84 | 1004.7 |
| 20260507143142 | 51 | 319 | 7.0 | 10.0 | 0.00 | 0.26 | 0.07 | 84 | 1004.8 |
| 20260507141643 | 50 | 307 | 5.0 | 11.0 | 0.00 | 0.26 | 0.07 | 88 | 1005.2 |
| 20260507140142 | 49 | 328 | 7.0 | 12.0 | 0.00 | 0.26 | 0.07 | 90 | 1005.4 |
| 20260507134642 | 48 | 324 | 5.0 | 10.0 | 0.00 | 0.26 | 0.07 | 92 | 1005.3 |
| 20260507133147 | 47 | 270 | 2.0 | 9.0 | 0.00 | 0.26 | 0.07 | 92 | 1006.2 |
| 20260507131646 | 47 | 324 | 3.0 | 8.0 | 0.00 | 0.26 | 0.07 | 93 | 1005.3 |
| 20260507130206 | 47 | 323 | 2.0 | 8.0 | 0.00 | 0.26 | 0.07 | 93 | 1005.3 |
| 20260507124707 | 47 | 298 | 4.0 | 9.0 | 0.00 | 0.26 | 0.07 | 94 | 1005.8 |
| 20260507123147 | 46 | 12 | 4.0 | 9.0 | 0.00 | 0.26 | 0.07 | 94 | 1005.3 |
| 20260507121629 | 46 | 337 | 6.0 | 13.0 | 0.00 | 0.26 | 0.07 | 95 | 1005.1 |
| 20260507120130 | 46 | 313 | 5.0 | 11.0 | 0.00 | 0.26 | 0.07 | 95 | 1005.3 |
| 20260507114631 | 46 | 287 | 6.0 | 12.0 | 0.00 | 0.26 | 0.07 | 95 | 1005.7 |
| 20260507113152 | 46 | 322 | 5.0 | 10.0 | 0.00 | 0.26 | 0.07 | 95 | 1005.5 |
| 20260507111631 | 46 | 318 | 5.0 | 9.0 | 0.00 | 0.26 | 0.07 | 95 | 1005.7 |
| 20260507110133 | 46 | 259 | 6.0 | 9.0 | 0.00 | 0.26 | 0.07 | 96 | 1005.9 |
| 20260507104633 | 46 | 324 | 7.0 | 12.0 | 0.00 | 0.26 | 0.07 | 96 | 1005.4 |
| 20260507103134 | 46 | 330 | 8.0 | 16.0 | 0.00 | 0.26 | 0.07 | 96 | 1005.0 |
| 20260507101655 | 46 | 277 | 10.0 | 16.0 | 0.00 | 0.26 | 0.07 | 96 | 1004.3 |
| 20260507100139 | 47 | 315 | 9.0 | 15.0 | 0.00 | 0.26 | 0.07 | 96 | 1004.4 |
| 20260507094640 | 47 | 313 | 5.0 | 15.0 | 0.00 | 0.26 | 0.07 | 96 | 1004.4 |
| 20260507093203 | 47 | 317 | 10.0 | 16.0 | 0.00 | 0.26 | 0.07 | 96 | 1004.2 |
| 20260507091644 | 47 | 308 | 10.0 | 16.0 | 0.00 | 0.26 | 0.07 | 96 | 1004.5 |
| 20260507090143 | 47 | 305 | 9.0 | 13.0 | 0.00 | 0.26 | 0.07 | 96 | 1004.1 |
| 20260507084646 | 47 | 322 | 9.0 | 15.0 | 0.01 | 0.26 | 0.07 | 96 | 1003.7 |
| 20260507083147 | 48 | 303 | 10.0 | 17.0 | 0.01 | 0.26 | 0.07 | 96 | 1003.7 |
| 20260507081628 | 48 | 295 | 9.0 | 16.0 | 0.01 | 0.26 | 0.07 | 96 | 1003.7 |
| 20260507080147 | 48 | 330 | 9.0 | 14.0 | 0.01 | 0.26 | 0.07 | 96 | 1003.7 |
| 20260507074630 | 48 | 305 | 8.0 | 14.0 | 0.00 | 0.25 | 0.06 | 96 | 1003.5 |
| 20260507073130 | 48 | 285 | 8.0 | 11.0 | 0.04 | 0.25 | 0.06 | 96 | 1003.4 |
| 20260507071631 | 47 | 250 | 7.0 | 10.0 | 0.04 | 0.25 | 0.06 | 96 | 1003.2 |
| 20260507070130 | 45 | 245 | 5.0 | 9.0 | 0.04 | 0.25 | 0.06 | 96 | 1003.2 |
| 20260507064634 | 45 | 233 | 6.0 | 11.0 | 0.06 | 0.25 | 0.06 | 96 | 1003.2 |
| 20260507063133 | 45 | 218 | 8.0 | 13.0 | 0.02 | 0.21 | 0.02 | 96 | 1003.6 |
| 20260507061634 | 46 | 225 | 10.0 | 23.0 | 0.02 | 0.21 | 0.02 | 96 | 1003.4 |
| 20260507060133 | 46 | 226 | 15.0 | 24.0 | 0.02 | 0.21 | 0.02 | 96 | 1003.6 |
| 20260507054653 | 46 | 258 | 16.0 | 23.0 | 0.00 | 0.19 | 0.00 | 96 | 1003.6 |
| 20260507053136 | 46 | 225 | 14.0 | 23.0 | 0.00 | 0.19 | 0.00 | 96 | 1003.6 |
| 20260507051635 | 46 | 240 | 14.0 | 19.0 | 0.00 | 0.19 | 0.00 | 95 | 1003.8 |
| 20260507050135 | 46 | 214 | 12.0 | 20.0 | 0.00 | 0.19 | 0.00 | 95 | 1003.9 |
| 20260507044635 | 46 | 220 | 14.0 | 24.0 | 0.00 | 0.19 | 0.19 | 95 | 1003.9 |
| 20260507043140 | 46 | 266 | 11.0 | 18.0 | 0.01 | 0.19 | 0.19 | 95 | 1004.1 |
| 20260507041641 | 46 | 244 | 11.0 | 26.0 | 0.01 | 0.19 | 0.19 | 96 | 1004.1 |
| 20260507040142 | 46 | 191 | 12.0 | 28.0 | 0.01 | 0.19 | 0.19 | 95 | 1004.3 |
| 20260507034642 | 47 | 166 | 15.0 | 30.0 | 0.03 | 0.19 | 0.19 | 95 | 1004.2 |
| 20260507033141 | 47 | 179 | 14.0 | 23.0 | 0.04 | 0.18 | 0.18 | 95 | 1004.5 |
| 20260507031647 | 47 | 204 | 14.0 | 25.0 | 0.06 | 0.18 | 0.18 | 95 | 1004.6 |
| 20260507030129 | 47 | 191 | 15.0 | 24.0 | 0.10 | 0.18 | 0.18 | 95 | 1004.8 |
| 20260507024630 | 47 | 191 | 15.0 | 24.0 | 0.10 | 0.16 | 0.16 | 95 | 1005.3 |
| 20260507023147 | 47 | 164 | 20.0 | 28.0 | 0.10 | 0.14 | 0.14 | 95 | 1005.5 |
| 20260507021631 | 47 | 170 | 23.0 | 32.0 | 0.10 | 0.12 | 0.12 | 94 | 1005.8 |
| 20260507020154 | 47 | 189 | 18.0 | 29.0 | 0.08 | 0.08 | 0.08 | 94 | 1006.2 |
| 20260507014633 | 47 | 179 | 15.0 | 26.0 | 0.05 | 0.05 | 0.05 | 94 | 1006.7 |
| 20260507013133 | 47 | 188 | 17.0 | 24.0 | 0.04 | 0.04 | 0.04 | 94 | 1006.9 |
| 20260507011653 | 47 | 166 | 15.0 | 24.0 | 0.02 | 0.02 | 0.02 | 94 | 1007.0 |
| 20260507010135 | 47 | 187 | 14.0 | 22.0 | 0.00 | 0.00 | 0.00 | 94 | 1007.5 |
| 20260507004636 | 47 | 197 | 10.0 | 18.0 | 0.00 | 0.00 | 0.00 | 93 | 1007.8 |
| 20260507003136 | 47 | 156 | 11.0 | 19.0 | 0.00 | 0.00 | 0.00 | 93 | 1008.0 |
| 20260507001634 | 47 | 192 | 13.0 | 22.0 | 0.00 | 0.00 | 0.00 | 93 | 1008.1 |
| 20260507000139 | 47 | 198 | 14.0 | 23.0 | 0.00 | 0.00 | 0.00 | 93 | 1008.1 |
| 20260506234639 | 47 | 165 | 13.0 | 22.0 | 0.00 | 0.00 | 0.00 | 93 | 1008.0 |
| 20260506233140 | 47 | 183 | 14.0 | 22.0 | 0.00 | 0.00 | 0.00 | 93 | 1008.0 |
| 20260506231639 | 47 | 224 | 13.0 | 21.0 | 0.00 | 0.00 | 0.00 | 93 | 1008.4 |
| 20260506230143 | 47 | 179 | 12.0 | 19.0 | 0.00 | 0.00 | 0.00 | 93 | 1008.1 |
| 20260506224704 | 47 | 204 | 11.0 | 19.0 | 0.00 | 0.00 | 0.00 | 93 | 1008.6 |
| 20260506223204 | 47 | 203 | 6.0 | 18.0 | 0.00 | 0.00 | 0.00 | 93 | 1009.0 |
| 20260506221643 | 47 | 201 | 9.0 | 14.0 | 0.00 | 0.00 | 0.00 | 93 | 1009.3 |
| 20260506220142 | 46 | 244 | 5.0 | 10.0 | 0.00 | 0.00 | 0.00 | 93 | 1009.7 |
| 20260506214648 | 47 | 260 | 5.0 | 15.0 | 0.00 | 0.00 | 0.00 | 93 | 1009.6 |
| 20260506213148 | 47 | 254 | 8.0 | 17.0 | 0.00 | 0.00 | 0.00 | 92 | 1009.8 |
| 20260506211628 | 47 | 254 | 10.0 | 18.0 | 0.00 | 0.00 | 0.00 | 92 | 1009.9 |
| 20260506210148 | 48 | 223 | 13.0 | 26.0 | 0.00 | 0.00 | 0.00 | 92 | 1009.2 |
| 20260506204631 | 48 | 194 | 17.0 | 27.0 | 0.00 | 0.00 | 0.00 | 92 | 1008.8 |
| 20260506203153 | 49 | 193 | 14.0 | 27.0 | 0.00 | 0.00 | 0.00 | 92 | 1008.7 |
| 20260506201630 | 48 | 201 | 14.0 | 22.0 | 0.00 | 0.00 | 0.00 | 92 | 1008.7 |
| 20260506200131 | 49 | 201 | 10.0 | 19.0 | 0.00 | 0.00 | 0.00 | 91 | 1009.0 |
| 20260506194630 | 48 | 247 | 7.0 | 11.0 | 0.00 | 0.00 | 0.00 | 91 | 1009.6 |
| 20260506193135 | 49 | 267 | 7.0 | 15.0 | 0.00 | 0.00 | 0.00 | 91 | 1009.7 |
| 20260506191636 | 50 | 231 | 8.0 | 22.0 | 0.00 | 0.00 | 0.00 | 91 | 1009.8 |
| 20260506190136 | 49 | 228 | 9.0 | 20.0 | 0.00 | 0.00 | 0.00 | 92 | 1009.9 |
| 20260506184636 | 49 | 262 | 7.0 | 13.0 | 0.00 | 0.00 | 0.00 | 91 | 1010.0 |
| 20260506183141 | 49 | 243 | 9.0 | 18.0 | 0.00 | 0.00 | 0.00 | 92 | 1010.3 |
| 20260506181643 | 49 | 226 | 6.0 | 15.0 | 0.00 | 0.00 | 0.00 | 92 | 1010.4 |
| 20260506180143 | 49 | 241 | 7.0 | 12.0 | 0.00 | 0.00 | 0.00 | 92 | 1010.6 |
| 20260506174643 | 49 | 210 | 5.0 | 9.0 | 0.00 | 0.00 | 0.00 | 92 | 1010.8 |
| 20260506173203 | 48 | 214 | 5.0 | 8.0 | 0.00 | 0.00 | 0.00 | 92 | 1011.0 |
| 20260506171645 | 49 | 237 | 5.0 | 13.0 | 0.00 | 0.00 | 0.00 | 92 | 1011.1 |
| 20260506170145 | 48 | 221 | 8.0 | 12.0 | 0.00 | 0.00 | 0.00 | 92 | 1011.4 |
| 20260506164643 | 49 | 223 | 7.0 | 11.0 | 0.00 | 0.00 | 0.00 | 92 | 1011.6 |